createdAt,value
2022-10-19T00:01:11.459Z,82.48
2022-10-19T00:04:16.344Z,82.41
2022-10-19T00:07:20.066Z,82.52
2022-10-19T00:10:22.831Z,82.48
2022-10-19T00:13:25.706Z,82.37
2022-10-19T00:16:31.896Z,82.27
2022-10-19T00:19:34.923Z,82.20
2022-10-19T00:22:37.790Z,82.26
2022-10-19T00:25:41.902Z,82.17
2022-10-19T00:28:45.308Z,82.12
2022-10-19T00:31:50.598Z,81.95
2022-10-19T00:34:53.670Z,81.90
2022-10-19T00:37:56.648Z,81.79
2022-10-19T00:40:59.413Z,81.82
2022-10-19T00:44:07.045Z,81.74
2022-10-19T00:47:10.061Z,81.65
2022-10-19T00:50:15.337Z,81.51
2022-10-19T00:53:18.572Z,81.43
2022-10-19T00:56:25.644Z,81.26
2022-10-19T00:59:31.975Z,81.21
2022-10-19T01:02:36.177Z,81.00
2022-10-19T01:05:39.890Z,80.88
2022-10-19T01:08:43.661Z,80.74
2022-10-19T01:11:56.250Z,80.88
2022-10-19T01:15:27.676Z,80.87
2022-10-19T01:18:58.584Z,80.82
2022-10-19T01:22:12.720Z,80.69
2022-10-19T01:25:38.500Z,80.62
2022-10-19T01:29:00.802Z,80.58
2022-10-19T01:32:13.378Z,80.36
2022-10-19T01:35:44.012Z,80.44
2022-10-19T01:39:02.641Z,80.41
2022-10-19T01:42:30.172Z,80.34
2022-10-19T01:45:42.147Z,80.39
2022-10-19T01:48:52.386Z,80.41
2022-10-19T01:52:00.637Z,80.37
2022-10-19T01:55:05.390Z,80.45
2022-10-19T01:58:12.619Z,80.34
2022-10-19T02:01:19.831Z,80.22
2022-10-19T02:04:24.162Z,80.22
2022-10-19T02:07:28.178Z,80.21
2022-10-19T02:10:35.439Z,80.21
2022-10-19T02:13:41.475Z,79.99
2022-10-19T02:16:52.804Z,79.81
2022-10-19T02:19:56.085Z,79.72
2022-10-19T02:22:58.959Z,79.64
2022-10-19T02:26:02.436Z,79.55
2022-10-19T02:29:05.818Z,79.04
2022-10-19T02:32:09.819Z,79.06
2022-10-19T02:35:14.833Z,78.95
2022-10-19T02:38:21.798Z,78.90
2022-10-19T02:41:31.146Z,78.82
2022-10-19T02:44:42.578Z,78.61
2022-10-19T02:47:51.187Z,78.73
2022-10-19T02:50:53.951Z,78.85
2022-10-19T02:53:58.990Z,78.73
2022-10-19T02:57:19.559Z,78.75
2022-10-19T03:00:22.511Z,78.70
2022-10-19T03:03:25.489Z,78.49
2022-10-19T03:06:28.353Z,78.64
2022-10-19T03:09:32.460Z,78.42
2022-10-19T03:12:35.323Z,78.26
2022-10-19T03:15:38.466Z,78.33
2022-10-19T03:18:41.369Z,78.51
2022-10-19T03:21:44.545Z,78.30
2022-10-19T03:24:47.519Z,78.41
2022-10-19T03:27:50.388Z,78.44
2022-10-19T03:30:53.563Z,78.61
2022-10-19T03:33:56.535Z,78.63
2022-10-19T03:36:59.617Z,78.72
2022-10-19T03:40:02.696Z,78.80
2022-10-19T03:43:05.763Z,78.97
2022-10-19T03:46:09.550Z,79.15
2022-10-19T03:49:12.730Z,79.07
2022-10-19T03:52:15.802Z,79.30
2022-10-19T03:55:18.984Z,79.36
2022-10-19T03:58:21.952Z,79.21
2022-10-19T04:01:29.065Z,79.25
2022-10-19T04:04:32.028Z,79.14
2022-10-19T04:07:35.083Z,79.24
2022-10-19T04:10:38.244Z,79.25
2022-10-19T04:13:41.628Z,79.19
2022-10-19T04:16:44.601Z,79.25
2022-10-19T04:19:47.466Z,79.42
2022-10-19T04:22:52.892Z,79.40
2022-10-19T04:26:03.670Z,79.45
2022-10-19T04:29:06.888Z,79.30
2022-10-19T04:32:09.898Z,79.45
2022-10-19T04:35:12.976Z,79.33
2022-10-19T04:38:16.353Z,79.37
2022-10-19T04:41:21.174Z,79.30
2022-10-19T04:47:32.154Z,79.41
2022-10-19T04:50:35.506Z,79.42
2022-10-19T04:53:42.487Z,79.53
2022-10-19T04:56:45.440Z,79.61
2022-10-19T04:59:48.313Z,79.71
2022-10-19T05:02:51.183Z,79.55
2022-10-19T05:05:54.156Z,79.40
2022-10-19T05:08:57.442Z,79.46
2022-10-19T05:12:00.505Z,79.42
2022-10-19T05:15:04.399Z,79.40
2022-10-19T05:18:07.782Z,79.33
2022-10-19T05:21:13.439Z,79.33
2022-10-19T05:24:16.283Z,79.30
2022-10-19T05:27:19.261Z,79.33
2022-10-19T05:30:22.344Z,79.13
2022-10-19T05:33:25.251Z,79.16
2022-10-19T05:36:34.668Z,79.21
2022-10-19T05:39:37.697Z,79.11
2022-10-19T05:42:46.507Z,79.10
2022-10-19T05:45:51.351Z,79.13
2022-10-19T05:48:56.745Z,79.11
2022-10-19T05:52:01.657Z,79.14
2022-10-19T05:55:05.971Z,78.99
2022-10-19T05:58:08.729Z,79.06
2022-10-19T06:01:12.314Z,79.11
2022-10-19T06:04:18.556Z,78.91
2022-10-19T06:07:21.643Z,78.87
2022-10-19T06:10:24.484Z,78.91
2022-10-19T06:13:27.482Z,78.86
2022-10-19T06:16:33.742Z,78.98
2022-10-19T06:19:37.113Z,79.01
2022-10-19T06:22:39.980Z,78.97
2022-10-19T06:25:42.950Z,78.91
2022-10-19T06:28:46.642Z,78.75
2022-10-19T06:31:49.610Z,78.76
2022-10-19T06:34:56.352Z,78.95
2022-10-19T06:38:00.673Z,78.96
2022-10-19T06:41:04.472Z,78.82
2022-10-19T06:44:07.437Z,78.85
2022-10-19T06:47:10.263Z,78.88
2022-10-19T06:50:13.583Z,78.96
2022-10-19T06:53:16.456Z,78.92
2022-10-19T06:56:44.730Z,79.10
2022-10-19T06:59:50.163Z,78.95
2022-10-19T07:02:56.281Z,79.24
2022-10-19T07:06:01.607Z,79.43
2022-10-19T07:09:04.676Z,79.51
2022-10-19T07:12:08.778Z,79.48
2022-10-19T07:15:11.746Z,79.55
2022-10-19T07:18:15.644Z,79.88
2022-10-19T07:21:20.184Z,80.17
2022-10-19T07:24:23.231Z,80.12
2022-10-19T07:27:26.197Z,80.17
2022-10-19T07:30:29.169Z,80.26
2022-10-19T07:33:32.039Z,80.29
2022-10-19T07:36:36.150Z,80.27
2022-10-19T07:39:39.513Z,80.30
2022-10-19T07:42:42.301Z,80.21
2022-10-19T07:45:45.155Z,80.05
2022-10-19T07:48:48.330Z,79.86
2022-10-19T07:51:54.344Z,79.82
2022-10-19T07:54:57.344Z,79.58
2022-10-19T07:58:02.275Z,79.68
2022-10-19T08:01:18.053Z,79.62
2022-10-19T08:07:44.038Z,79.65
2022-10-19T08:10:48.992Z,79.70
2022-10-19T08:13:53.467Z,79.68
2022-10-19T08:16:56.631Z,79.67
2022-10-19T08:19:59.510Z,79.65
2022-10-19T08:23:02.470Z,79.29
2022-10-19T08:26:05.749Z,79.17
2022-10-19T08:29:17.184Z,78.93
2022-10-19T08:32:20.416Z,78.84
2022-10-19T08:35:23.380Z,78.66
2022-10-19T08:38:28.336Z,78.19
2022-10-19T08:41:57.571Z,77.77
2022-10-19T08:45:33.096Z,77.47
2022-10-19T08:48:39.784Z,76.92
2022-10-19T08:51:44.951Z,77.03
2022-10-19T08:55:01.044Z,77.02
2022-10-19T08:58:18.725Z,76.56
2022-10-19T09:01:33.798Z,76.07
2022-10-19T09:04:44.629Z,75.46
2022-10-19T09:07:53.764Z,75.61
2022-10-19T09:10:57.694Z,75.30
2022-10-19T09:14:14.224Z,75.30
2022-10-19T09:17:20.056Z,75.36
2022-10-19T09:20:31.625Z,74.61
2022-10-19T09:23:40.022Z,74.54
2022-10-19T09:26:47.283Z,74.73
2022-10-19T09:29:57.731Z,74.22
2022-10-19T09:33:02.230Z,74.35
2022-10-19T09:36:07.783Z,74.80
2022-10-19T09:39:14.523Z,74.89
2022-10-19T09:42:33.759Z,74.73
2022-10-19T09:46:01.073Z,74.74
2022-10-19T09:49:05.952Z,74.62
2022-10-19T09:52:26.360Z,74.58
2022-10-19T09:55:43.338Z,74.45
2022-10-19T09:58:54.633Z,74.87
2022-10-19T10:02:06.732Z,74.62
2022-10-19T10:05:15.726Z,74.54
2022-10-19T10:08:23.171Z,74.60
2022-10-19T10:11:34.222Z,74.40
2022-10-19T10:14:40.094Z,74.14
2022-10-19T10:17:47.370Z,74.26
2022-10-19T10:21:15.204Z,74.13
2022-10-19T10:24:20.651Z,74.12
2022-10-19T10:27:36.881Z,74.10
2022-10-19T10:30:40.189Z,73.65
2022-10-19T10:33:45.561Z,73.62
2022-10-19T10:36:51.859Z,73.34
2022-10-19T10:40:00.361Z,73.32
2022-10-19T10:43:17.042Z,73.64
2022-10-19T10:46:24.592Z,73.38
2022-10-19T10:49:32.712Z,73.43
2022-10-19T10:52:37.504Z,73.26
2022-10-19T10:55:40.804Z,72.49
2022-10-19T10:59:06.904Z,72.09
2022-10-19T11:02:42.910Z,71.90
2022-10-19T11:05:56.542Z,72.19
2022-10-19T11:09:09.036Z,72.36
2022-10-19T11:12:16.613Z,71.83
2022-10-19T11:15:26.471Z,71.78
2022-10-19T11:18:38.109Z,72.18
2022-10-19T11:21:54.357Z,71.66
2022-10-19T11:25:09.947Z,71.20
2022-10-19T11:28:45.870Z,71.34
2022-10-19T11:31:51.525Z,71.38
2022-10-19T11:35:12.998Z,70.86
2022-10-19T11:38:30.210Z,71.10
2022-10-19T11:41:41.760Z,70.96
2022-10-19T11:45:06.735Z,71.08
2022-10-19T11:48:41.717Z,71.30
2022-10-19T11:51:52.087Z,70.74
2022-10-19T11:55:01.501Z,71.14
2022-10-19T11:58:40.187Z,70.55
2022-10-19T12:01:52.612Z,70.89
2022-10-19T12:05:25.071Z,71.25
2022-10-19T12:08:36.687Z,70.81
2022-10-19T12:11:58.085Z,71.21
2022-10-19T12:15:17.321Z,71.47
2022-10-19T12:18:39.435Z,71.35
2022-10-19T12:21:43.834Z,70.97
2022-10-19T12:24:47.969Z,71.22
2022-10-19T12:27:52.034Z,71.23
2022-10-19T12:30:55.823Z,70.88
2022-10-19T12:34:20.899Z,71.12
2022-10-19T12:37:37.949Z,71.16
2022-10-19T12:40:51.505Z,71.20
2022-10-19T12:44:33.776Z,71.32
2022-10-19T12:47:37.066Z,70.98
2022-10-19T12:50:49.452Z,70.55
2022-10-19T12:54:08.717Z,71.01
2022-10-19T12:57:27.928Z,70.72
2022-10-19T13:00:33.085Z,70.79
2022-10-19T13:03:41.453Z,70.64
2022-10-19T13:06:50.320Z,70.47
2022-10-19T13:10:01.959Z,70.88
2022-10-19T13:13:05.098Z,70.64
2022-10-19T13:16:29.775Z,70.56
2022-10-19T13:19:33.040Z,70.41
2022-10-19T13:22:36.274Z,70.51
2022-10-19T13:25:41.952Z,70.84
2022-10-19T13:28:56.025Z,70.28
2022-10-19T13:32:37.953Z,69.81
2022-10-19T13:35:41.321Z,69.54
2022-10-19T13:38:56.674Z,68.48
2022-10-19T13:41:59.852Z,68.80
2022-10-19T13:45:03.138Z,68.71
2022-10-19T13:48:20.661Z,68.91
2022-10-19T13:51:41.521Z,67.82
2022-10-19T13:55:15.971Z,67.59
2022-10-19T13:58:34.535Z,68.18
2022-10-19T14:02:13.221Z,68.40
2022-10-19T14:05:29.520Z,68.22
2022-10-19T14:08:51.099Z,68.24
2022-10-19T14:12:06.920Z,67.47
2022-10-19T14:15:22.845Z,66.84
2022-10-19T14:18:30.002Z,67.02
2022-10-19T14:21:37.045Z,66.44
2022-10-19T14:24:40.029Z,66.66
2022-10-19T14:27:43.319Z,66.92
2022-10-19T14:30:55.492Z,66.80
2022-10-19T14:34:02.763Z,67.03
2022-10-19T14:37:14.579Z,65.23
2022-10-19T14:40:28.669Z,65.61
2022-10-19T14:43:33.990Z,66.41
2022-10-19T14:46:36.962Z,66.80
2022-10-19T14:49:39.931Z,67.24
2022-10-19T14:52:43.725Z,67.59
2022-10-19T14:55:49.210Z,67.64
2022-10-19T14:59:03.891Z,67.63
2022-10-19T15:02:24.338Z,67.59
2022-10-19T15:05:31.456Z,67.93
2022-10-19T15:08:43.917Z,68.12
2022-10-19T15:11:49.976Z,68.21
2022-10-19T15:14:53.240Z,68.53
2022-10-19T15:18:02.331Z,68.67
2022-10-19T15:21:14.471Z,68.64
2022-10-19T15:24:27.673Z,68.58
2022-10-19T15:27:34.807Z,68.45
2022-10-19T15:30:37.779Z,68.76
2022-10-19T15:33:45.367Z,68.67
2022-10-19T15:37:01.735Z,68.70
2022-10-19T15:40:29.166Z,68.64
2022-10-19T15:43:34.702Z,68.78
2022-10-19T15:46:46.778Z,68.80
2022-10-19T15:50:03.669Z,68.91
2022-10-19T15:53:15.975Z,68.99
2022-10-19T15:56:19.539Z,68.88
2022-10-19T15:59:27.212Z,68.99
2022-10-19T16:02:30.183Z,69.23
2022-10-19T16:05:35.173Z,69.32
2022-10-19T16:08:38.581Z,69.30
2022-10-19T16:11:41.667Z,69.29
2022-10-19T16:14:44.854Z,69.26
2022-10-19T16:17:58.443Z,69.34
2022-10-19T16:21:02.046Z,69.67
2022-10-19T16:24:05.524Z,69.59
2022-10-19T16:27:08.901Z,69.56
2022-10-19T16:30:12.734Z,69.34
2022-10-19T16:33:15.872Z,69.23
2022-10-19T16:36:21.714Z,69.40
2022-10-19T16:39:25.908Z,69.62
2022-10-19T16:42:30.564Z,69.63
2022-10-19T16:45:33.917Z,69.64
2022-10-19T16:48:37.281Z,69.58
2022-10-19T16:51:41.688Z,69.67
2022-10-19T16:54:44.570Z,69.51
2022-10-19T16:57:47.639Z,69.82
2022-10-19T17:00:50.604Z,69.89
2022-10-19T17:03:54.727Z,69.90
2022-10-19T17:06:57.982Z,69.93
2022-10-19T17:10:00.865Z,69.92
2022-10-19T17:13:03.924Z,70.08
2022-10-19T17:16:07.989Z,70.28
2022-10-19T17:19:11.712Z,70.35
2022-10-19T17:22:14.785Z,70.51
2022-10-19T17:25:17.967Z,70.59
2022-10-19T17:28:23.010Z,70.60
2022-10-19T17:31:29.127Z,70.56
2022-10-19T17:34:32.102Z,70.74
2022-10-19T17:37:35.403Z,70.83
2022-10-19T17:40:39.374Z,70.61
2022-10-19T17:43:44.184Z,70.50
2022-10-19T17:46:48.799Z,70.41
2022-10-19T17:49:51.665Z,70.41
2022-10-19T17:52:54.654Z,70.70
2022-10-19T17:56:02.524Z,70.67
2022-10-19T17:59:09.350Z,71.01
2022-10-19T18:02:12.564Z,70.87
2022-10-19T18:05:15.855Z,70.90
2022-10-19T18:08:18.709Z,70.94
2022-10-19T18:11:34.867Z,71.08
2022-10-19T18:14:37.830Z,71.12
2022-10-19T18:17:40.796Z,71.23
2022-10-19T18:20:43.774Z,71.15
2022-10-19T18:23:47.606Z,71.03
2022-10-19T18:26:51.484Z,71.05
2022-10-19T18:29:54.527Z,71.13
2022-10-19T18:32:57.501Z,71.09
2022-10-19T18:36:00.371Z,70.76
2022-10-19T18:39:05.810Z,70.68
2022-10-19T18:42:12.287Z,70.61
2022-10-19T18:45:15.429Z,70.51
2022-10-19T18:48:18.607Z,70.43
2022-10-19T18:51:23.334Z,70.65
2022-10-19T18:54:28.203Z,70.51
2022-10-19T18:57:31.984Z,70.48
2022-10-19T19:00:35.506Z,70.41
2022-10-19T19:03:40.986Z,70.27
2022-10-19T19:06:44.533Z,70.43
2022-10-19T19:09:47.798Z,70.37
2022-10-19T19:12:52.535Z,70.20
2022-10-19T19:16:00.601Z,69.98
2022-10-19T19:19:04.911Z,70.04
2022-10-19T19:22:08.849Z,69.90
2022-10-19T19:25:11.936Z,69.99
2022-10-19T19:28:14.746Z,70.06
2022-10-19T19:31:17.919Z,69.85
2022-10-19T19:34:20.866Z,69.97
2022-10-19T19:37:24.180Z,69.85
2022-10-19T19:40:27.250Z,69.91
2022-10-19T19:43:33.080Z,70.10
2022-10-19T19:46:36.361Z,69.99
2022-10-19T19:49:39.231Z,69.98
2022-10-19T19:52:42.307Z,69.82
2022-10-19T19:55:49.517Z,69.76
2022-10-19T19:58:58.381Z,69.78
2022-10-19T20:02:02.134Z,69.89
2022-10-19T20:05:05.868Z,69.75
2022-10-19T20:08:09.549Z,69.64
2022-10-19T20:11:14.369Z,69.36
2022-10-19T20:14:18.983Z,69.53
2022-10-19T20:17:24.102Z,69.63
2022-10-19T20:20:27.076Z,69.80
2022-10-19T20:23:30.680Z,69.58
2022-10-19T20:26:34.038Z,69.65
2022-10-19T20:29:36.908Z,69.60
2022-10-19T20:32:39.792Z,69.45
2022-10-19T20:35:42.651Z,69.50
2022-10-19T20:38:48.688Z,69.46
2022-10-19T20:41:51.759Z,69.49
2022-10-19T20:44:55.755Z,69.57
2022-10-19T20:47:58.631Z,69.45
2022-10-19T20:51:13.578Z,69.53
2022-10-19T20:54:16.543Z,69.43
2022-10-19T20:57:19.515Z,69.66
2022-10-19T21:00:22.695Z,69.73
2022-10-19T21:03:25.567Z,69.50
2022-10-19T21:06:30.303Z,69.44
2022-10-19T21:09:33.628Z,69.46
2022-10-19T21:12:36.860Z,69.49
2022-10-19T21:15:40.115Z,69.82
2022-10-19T21:18:44.320Z,69.63
2022-10-19T21:21:50.775Z,69.48
2022-10-19T21:24:53.743Z,69.38
2022-10-19T21:27:56.713Z,69.47
2022-10-19T21:31:07.358Z,69.43
2022-10-19T21:34:13.991Z,69.24
2022-10-19T21:37:16.987Z,69.46
2022-10-19T21:40:19.860Z,69.49
2022-10-19T21:43:24.376Z,69.46
2022-10-19T21:46:27.649Z,69.61
2022-10-19T21:49:30.517Z,69.41
2022-10-19T21:52:33.487Z,69.56
2022-10-19T21:55:37.281Z,69.55
2022-10-19T21:58:48.233Z,69.77
2022-10-19T22:01:51.406Z,69.59
2022-10-19T22:04:54.383Z,69.67
2022-10-19T22:07:57.352Z,69.64
2022-10-19T22:11:09.336Z,69.52
2022-10-19T22:14:16.109Z,69.51
2022-10-19T22:17:19.780Z,69.50
2022-10-19T22:20:23.015Z,69.76
2022-10-19T22:23:25.927Z,69.72
2022-10-19T22:26:35.394Z,69.63
2022-10-19T22:29:38.325Z,69.43
2022-10-19T22:32:41.292Z,69.41
2022-10-19T22:35:56.980Z,69.27
2022-10-19T22:39:00.233Z,69.06
2022-10-19T22:42:03.414Z,69.08
2022-10-19T22:45:07.302Z,68.97
2022-10-19T22:48:10.172Z,69.12
2022-10-19T22:51:13.248Z,68.30
2022-10-19T22:54:16.954Z,68.12
2022-10-19T22:57:20.215Z,68.37
2022-10-19T23:00:24.009Z,67.94
2022-10-19T23:03:27.189Z,67.86
2022-10-19T23:06:30.577Z,67.83
2022-10-19T23:09:33.536Z,67.55
2022-10-19T23:12:36.410Z,67.37
2022-10-19T23:15:43.124Z,67.25
2022-10-19T23:18:46.956Z,66.65
2022-10-19T23:21:49.829Z,66.80
2022-10-19T23:24:53.045Z,66.88
2022-10-19T23:27:55.974Z,66.85
2022-10-19T23:31:04.783Z,67.06
2022-10-19T23:34:12.054Z,67.23
2022-10-19T23:37:15.343Z,66.43
2022-10-19T23:40:18.306Z,66.04
2022-10-19T23:43:21.376Z,66.44
2022-10-19T23:46:24.459Z,66.22
2022-10-19T23:49:27.425Z,66.25
2022-10-19T23:52:30.297Z,66.28
2022-10-19T23:55:34.624Z,66.06
2022-10-19T23:58:37.776Z,66.19
